createdAt,value
2023-02-02T00:01:52.411Z,6.90
2023-02-02T00:04:24.244Z,7.00
2023-02-02T00:06:54.822Z,7.00
2023-02-02T00:09:24.808Z,7.02
2023-02-02T00:11:54.955Z,7.06
2023-02-02T00:14:25.254Z,7.11
2023-02-02T00:16:59.187Z,7.11
2023-02-02T00:19:31.669Z,7.15
2023-02-02T00:22:01.936Z,7.18
2023-02-02T00:24:32.258Z,7.28
2023-02-02T00:27:03.124Z,7.28
2023-02-02T00:29:34.472Z,7.25
2023-02-02T00:32:07.495Z,7.29
2023-02-02T00:34:37.528Z,7.26
2023-02-02T00:37:08.799Z,7.29
2023-02-02T00:39:38.863Z,7.34
2023-02-02T00:42:09.095Z,7.31
2023-02-02T00:44:51.965Z,7.27
2023-02-02T00:47:24.991Z,7.28
2023-02-02T00:49:54.998Z,7.25
2023-02-02T00:52:25.116Z,7.25
2023-02-02T00:54:55.241Z,7.18
2023-02-02T00:57:25.510Z,7.16
2023-02-02T00:59:56.307Z,7.20
2023-02-02T01:02:29.047Z,7.19
2023-02-02T01:04:59.064Z,7.25
2023-02-02T01:07:29.101Z,7.23
2023-02-02T01:10:15.162Z,7.21
2023-02-02T01:12:46.813Z,7.30
2023-02-02T01:15:16.923Z,7.31
2023-02-02T01:17:49.674Z,7.26
2023-02-02T01:20:22.063Z,7.25
2023-02-02T01:22:52.490Z,7.24
2023-02-02T01:25:22.998Z,7.20
2023-02-02T01:27:53.063Z,7.20
2023-02-02T01:30:23.858Z,7.25
2023-02-02T01:32:56.403Z,7.22
2023-02-02T01:35:26.609Z,7.20
2023-02-02T01:37:56.888Z,7.20
2023-02-02T01:40:27.104Z,7.17
2023-02-02T01:42:57.232Z,7.15
2023-02-02T01:45:30.716Z,7.09
2023-02-02T01:48:03.737Z,7.08
2023-02-02T01:50:36.961Z,7.08
2023-02-02T01:53:09.993Z,7.15
2023-02-02T01:55:42.530Z,7.17
2023-02-02T01:58:19.713Z,7.18
2023-02-02T02:00:50.149Z,7.21
2023-02-02T02:03:25.853Z,7.27
2023-02-02T02:06:00.477Z,7.31
2023-02-02T02:08:39.582Z,7.29
2023-02-02T02:11:10.361Z,7.30
2023-02-02T02:13:54.444Z,7.31
2023-02-02T02:16:36.207Z,7.35
2023-02-02T02:19:24.651Z,7.40
2023-02-02T02:22:15.193Z,7.41
2023-02-02T02:25:33.318Z,7.40
2023-02-02T02:28:30.704Z,7.37
2023-02-02T02:31:41.932Z,7.47
2023-02-02T02:34:20.941Z,7.50
2023-02-02T02:36:56.272Z,7.50
2023-02-02T02:39:35.278Z,7.55
2023-02-02T02:42:12.412Z,7.60
2023-02-02T02:44:44.690Z,7.65
2023-02-02T02:47:15.009Z,7.69
2023-02-02T02:49:48.932Z,7.71
2023-02-02T02:52:19.146Z,7.70
2023-02-02T02:54:52.521Z,7.70
2023-02-02T02:57:50.112Z,7.74
2023-02-02T03:00:35.476Z,7.73
2023-02-02T03:03:12.017Z,7.79
2023-02-02T03:05:53.914Z,7.82
2023-02-02T03:08:30.305Z,7.84
2023-02-02T03:11:02.415Z,7.84
2023-02-02T03:13:32.538Z,7.81
2023-02-02T03:16:02.948Z,7.79
2023-02-02T03:18:35.482Z,7.83
2023-02-02T03:21:08.526Z,7.85
2023-02-02T03:23:38.809Z,7.82
2023-02-02T03:26:09.486Z,7.81
2023-02-02T03:28:39.653Z,7.82
2023-02-02T03:31:09.992Z,7.86
2023-02-02T03:33:40.404Z,7.86
2023-02-02T03:36:13.392Z,7.84
2023-02-02T03:38:43.362Z,7.85
2023-02-02T03:41:13.604Z,7.88
2023-02-02T03:43:43.753Z,7.90
2023-02-02T03:46:13.991Z,7.86
2023-02-02T03:48:43.970Z,7.90
2023-02-02T03:51:18.077Z,7.94
2023-02-02T03:53:48.112Z,7.91
2023-02-02T03:56:19.404Z,7.90
2023-02-02T03:58:49.977Z,7.87
2023-02-02T04:01:20.025Z,7.82
2023-02-02T04:03:52.909Z,7.82
2023-02-02T04:06:25.997Z,7.76
2023-02-02T04:08:56.104Z,7.72
2023-02-02T04:11:26.056Z,7.71
2023-02-02T04:13:56.057Z,7.72
2023-02-02T04:16:26.725Z,7.66
2023-02-02T04:18:56.765Z,7.59
2023-02-02T04:21:29.365Z,7.63
2023-02-02T04:23:59.435Z,7.66
2023-02-02T04:26:29.809Z,7.67
2023-02-02T04:28:59.879Z,7.70
2023-02-02T04:31:30.129Z,7.72
2023-02-02T04:34:00.236Z,7.76
2023-02-02T04:36:32.802Z,7.81
2023-02-02T04:39:02.716Z,7.80
2023-02-02T04:41:32.792Z,7.83
2023-02-02T04:44:02.702Z,7.83
2023-02-02T04:46:32.617Z,7.84
2023-02-02T04:49:02.688Z,7.84
2023-02-02T04:51:37.688Z,7.84
2023-02-02T04:54:07.958Z,7.83
2023-02-02T04:56:38.070Z,7.80
2023-02-02T04:59:08.043Z,7.77
2023-02-02T05:01:38.045Z,7.81
2023-02-02T05:04:08.387Z,7.82
2023-02-02T05:06:40.959Z,7.84
2023-02-02T05:09:11.049Z,7.87
2023-02-02T05:11:44.495Z,7.91
2023-02-02T05:14:17.118Z,7.91
2023-02-02T05:16:47.509Z,7.93
2023-02-02T05:19:17.536Z,7.90
2023-02-02T05:21:51.330Z,7.82
2023-02-02T05:24:21.546Z,7.75
2023-02-02T05:26:52.944Z,7.75
2023-02-02T05:29:23.074Z,7.73
2023-02-02T05:31:53.149Z,7.71
2023-02-02T05:34:23.244Z,7.68
2023-02-02T05:36:55.881Z,7.67
2023-02-02T05:39:25.849Z,7.66
2023-02-02T05:41:55.958Z,7.66
2023-02-02T05:44:25.994Z,7.65
2023-02-02T05:46:56.009Z,7.63
2023-02-02T05:49:26.145Z,7.60
2023-02-02T05:52:01.017Z,7.61
2023-02-02T05:54:31.087Z,7.60
2023-02-02T05:57:01.299Z,7.58
2023-02-02T05:59:31.389Z,7.58
2023-02-02T06:02:01.390Z,7.56
2023-02-02T06:04:31.401Z,7.49
2023-02-02T06:07:03.970Z,7.52
2023-02-02T06:09:33.886Z,7.52
2023-02-02T06:12:03.900Z,7.56
2023-02-02T06:14:34.461Z,7.55
2023-02-02T06:17:04.523Z,7.52
2023-02-02T06:19:34.490Z,7.57
2023-02-02T06:22:07.354Z,7.55
2023-02-02T06:24:37.351Z,7.60
2023-02-02T06:27:07.212Z,7.61
2023-02-02T06:29:37.175Z,7.64
2023-02-02T06:32:07.574Z,7.65
2023-02-02T06:34:37.613Z,7.68
2023-02-02T06:37:10.230Z,7.68
2023-02-02T06:39:40.108Z,7.69
2023-02-02T06:42:20.863Z,7.68
2023-02-02T06:44:51.850Z,7.68
2023-02-02T06:47:21.814Z,7.68
2023-02-02T06:49:51.793Z,7.64
2023-02-02T06:52:24.344Z,7.68
2023-02-02T06:54:54.268Z,7.70
2023-02-02T06:57:24.239Z,7.75
2023-02-02T06:59:54.319Z,7.73
2023-02-02T07:02:24.698Z,7.76
2023-02-02T07:04:54.905Z,7.77
2023-02-02T07:07:27.525Z,7.76
2023-02-02T07:09:57.753Z,7.81
2023-02-02T07:12:28.489Z,7.80
2023-02-02T07:14:59.485Z,7.82
2023-02-02T07:17:29.491Z,7.84
2023-02-02T07:19:59.509Z,7.83
2023-02-02T07:22:32.051Z,7.87
2023-02-02T07:25:01.998Z,7.83
2023-02-02T07:27:33.074Z,7.83
2023-02-02T07:30:04.135Z,7.86
2023-02-02T07:32:34.079Z,7.89
2023-02-02T07:35:04.159Z,7.86
2023-02-02T07:37:38.483Z,7.86
2023-02-02T07:40:12.341Z,7.88
2023-02-02T07:42:43.512Z,7.93
2023-02-02T07:45:27.586Z,7.97
2023-02-02T07:48:01.792Z,8.02
2023-02-02T07:50:32.953Z,8.04
2023-02-02T07:53:05.485Z,8.09
2023-02-02T07:55:35.385Z,8.14
2023-02-02T07:58:05.351Z,8.18
2023-02-02T08:00:35.489Z,8.24
2023-02-02T08:03:05.491Z,8.29
2023-02-02T08:05:35.470Z,8.34
2023-02-02T08:08:08.109Z,8.38
2023-02-02T08:10:38.053Z,8.54
2023-02-02T08:13:07.974Z,8.71
2023-02-02T08:15:37.973Z,8.74
2023-02-02T08:18:08.007Z,8.84
2023-02-02T08:20:38.040Z,8.76
2023-02-02T08:23:15.766Z,8.69
2023-02-02T08:25:46.044Z,8.71
2023-02-02T08:28:15.970Z,8.85
2023-02-02T08:30:46.079Z,9.39
2023-02-02T08:33:16.249Z,9.54
2023-02-02T08:35:47.340Z,9.60
2023-02-02T08:38:19.937Z,9.58
2023-02-02T08:40:50.023Z,9.58
2023-02-02T08:43:20.066Z,9.62
2023-02-02T08:46:02.920Z,9.54
2023-02-02T08:48:34.903Z,9.52
2023-02-02T08:51:49.192Z,9.44
2023-02-02T08:54:21.779Z,9.35
2023-02-02T08:56:51.881Z,9.41
2023-02-02T08:59:21.857Z,10.31
2023-02-02T09:01:51.849Z,10.60
2023-02-02T09:04:21.771Z,10.54
2023-02-02T09:06:51.819Z,10.42
2023-02-02T09:09:24.614Z,10.15
2023-02-02T09:11:54.549Z,9.91
2023-02-02T09:14:24.445Z,9.86
2023-02-02T09:16:54.521Z,9.92
2023-02-02T09:19:24.533Z,9.88
2023-02-02T09:21:54.561Z,9.82
2023-02-02T09:24:27.172Z,9.66
2023-02-02T09:26:57.151Z,9.54
2023-02-02T09:29:27.160Z,9.48
2023-02-02T09:31:57.239Z,9.36
2023-02-02T09:34:27.292Z,9.37
2023-02-02T09:36:57.546Z,9.39
2023-02-02T09:39:30.606Z,9.45
2023-02-02T09:42:29.370Z,9.55
2023-02-02T09:45:04.627Z,9.76
2023-02-02T09:47:55.579Z,9.92
2023-02-02T09:50:38.033Z,10.00
2023-02-02T09:53:14.041Z,10.35
2023-02-02T09:55:48.093Z,11.52
2023-02-02T09:58:24.132Z,11.74
2023-02-02T10:00:59.653Z,11.51
2023-02-02T10:03:35.929Z,11.07
2023-02-02T10:06:13.754Z,10.93
2023-02-02T10:08:48.734Z,10.86
2023-02-02T10:11:32.770Z,10.59
2023-02-02T10:14:07.454Z,11.22
2023-02-02T10:16:41.139Z,11.79
2023-02-02T10:19:15.204Z,12.79
2023-02-02T10:21:51.765Z,14.31
2023-02-02T10:24:24.798Z,15.63
2023-02-02T10:27:04.181Z,16.53
2023-02-02T10:29:48.904Z,17.38
2023-02-02T10:32:25.745Z,17.41
2023-02-02T10:35:13.918Z,17.38
2023-02-02T10:37:51.380Z,17.24
2023-02-02T10:40:36.256Z,17.72
2023-02-02T10:43:35.378Z,18.56
2023-02-02T10:46:07.807Z,19.89
2023-02-02T10:48:38.743Z,20.76
2023-02-02T10:51:18.500Z,20.44
2023-02-02T10:53:53.416Z,20.51
2023-02-02T10:56:29.461Z,19.42
2023-02-02T10:59:08.924Z,18.11
2023-02-02T11:01:38.921Z,16.58
2023-02-02T11:04:21.784Z,15.60
2023-02-02T11:06:54.794Z,14.90
2023-02-02T11:09:28.617Z,15.70
2023-02-02T11:12:03.856Z,16.15
2023-02-02T11:14:45.537Z,15.84
2023-02-02T11:17:24.355Z,14.99
2023-02-02T11:19:55.964Z,14.33
2023-02-02T11:22:35.224Z,13.88
2023-02-02T11:25:08.521Z,13.44
2023-02-02T11:27:43.453Z,13.03
2023-02-02T11:30:27.958Z,12.52
2023-02-02T11:32:58.046Z,12.12
2023-02-02T11:35:29.819Z,11.78
2023-02-02T11:38:13.335Z,11.48
2023-02-02T11:40:46.664Z,11.38
2023-02-02T11:43:22.827Z,11.31
2023-02-02T11:46:02.976Z,11.34
2023-02-02T11:48:41.470Z,11.33
2023-02-02T11:51:30.180Z,11.20
2023-02-02T11:54:09.308Z,11.13
2023-02-02T11:56:45.037Z,11.04
2023-02-02T11:59:36.583Z,10.82
2023-02-02T12:02:34.107Z,10.84
2023-02-02T12:05:37.895Z,11.03
2023-02-02T12:08:19.020Z,12.00
2023-02-02T12:10:57.518Z,12.00
2023-02-02T12:14:04.568Z,11.85
2023-02-02T12:16:46.332Z,11.51
2023-02-02T12:19:43.624Z,11.26
2023-02-02T12:22:34.170Z,11.12
2023-02-02T12:25:12.708Z,11.00
2023-02-02T12:27:54.453Z,10.73
2023-02-02T12:30:36.127Z,10.49
2023-02-02T12:33:24.194Z,10.42
2023-02-02T12:36:12.377Z,10.42
2023-02-02T12:39:02.709Z,10.36
2023-02-02T12:41:46.498Z,10.23
2023-02-02T12:44:26.411Z,10.21
2023-02-02T12:47:08.769Z,10.16
2023-02-02T12:50:03.292Z,10.24
2023-02-02T12:52:50.941Z,11.53
2023-02-02T12:55:30.436Z,14.83
2023-02-02T12:58:11.991Z,17.02
2023-02-02T13:01:14.052Z,18.29
2023-02-02T13:04:02.550Z,18.89
2023-02-02T13:06:56.842Z,19.73
2023-02-02T13:09:34.659Z,19.92
2023-02-02T13:12:10.431Z,19.05
2023-02-02T13:14:51.182Z,18.08
2023-02-02T13:17:26.457Z,17.09
2023-02-02T13:20:14.258Z,15.73
2023-02-02T13:22:50.696Z,15.48
2023-02-02T13:25:31.799Z,14.99
2023-02-02T13:28:03.512Z,14.51
2023-02-02T13:30:43.011Z,14.42
2023-02-02T13:33:21.804Z,13.97
2023-02-02T13:35:58.162Z,13.13
2023-02-02T13:38:30.960Z,12.53
2023-02-02T13:41:14.047Z,12.10
2023-02-02T13:43:54.103Z,12.65
2023-02-02T13:46:33.363Z,14.03
2023-02-02T13:49:10.940Z,16.27
2023-02-02T13:52:03.161Z,18.09
2023-02-02T13:54:59.217Z,19.45
2023-02-02T13:57:57.724Z,20.45
2023-02-02T14:00:33.692Z,20.64
2023-02-02T14:03:06.747Z,20.78
2023-02-02T14:05:39.786Z,20.42
2023-02-02T14:08:19.308Z,18.38
2023-02-02T14:11:02.613Z,17.61
2023-02-02T14:13:56.876Z,17.18
2023-02-02T14:16:44.836Z,15.94
2023-02-02T14:19:19.058Z,15.63
2023-02-02T14:22:20.123Z,15.68
2023-02-02T14:24:53.694Z,16.44
2023-02-02T14:27:58.739Z,16.30
2023-02-02T14:30:35.557Z,15.09
2023-02-02T14:33:27.749Z,14.25
2023-02-02T14:36:04.436Z,13.39
2023-02-02T14:38:58.958Z,13.26
2023-02-02T14:41:53.447Z,13.10
2023-02-02T14:44:24.110Z,13.15
2023-02-02T14:46:59.277Z,13.39
2023-02-02T14:49:35.576Z,13.25
2023-02-02T14:52:06.523Z,12.68
2023-02-02T14:54:40.310Z,11.97
2023-02-02T14:57:26.666Z,11.50
2023-02-02T15:00:01.199Z,11.37
2023-02-02T15:02:39.445Z,11.45
2023-02-02T15:05:39.192Z,11.42
2023-02-02T15:08:16.914Z,11.20
2023-02-02T15:11:01.550Z,11.24
2023-02-02T15:13:37.681Z,11.21
2023-02-02T15:16:15.349Z,11.03
2023-02-02T15:18:52.156Z,10.75
2023-02-02T15:21:24.204Z,10.41
2023-02-02T15:23:54.654Z,10.15
2023-02-02T15:26:28.773Z,9.85
2023-02-02T15:29:03.368Z,9.68
2023-02-02T15:31:39.655Z,9.55
2023-02-02T15:34:20.955Z,9.40
2023-02-02T15:36:54.626Z,9.22
2023-02-02T15:39:31.903Z,9.15
2023-02-02T15:42:17.832Z,9.04
2023-02-02T15:44:48.396Z,9.05
2023-02-02T15:47:22.961Z,8.99
2023-02-02T15:49:55.727Z,8.93
2023-02-02T15:52:29.406Z,8.88
2023-02-02T15:55:01.220Z,8.83
2023-02-02T15:57:34.558Z,8.77
2023-02-02T16:00:26.580Z,8.69
2023-02-02T16:03:02.618Z,8.65
2023-02-02T16:05:48.487Z,8.60
2023-02-02T16:08:26.400Z,8.56
2023-02-02T16:11:08.701Z,8.52
2023-02-02T16:13:40.345Z,8.50
2023-02-02T16:16:26.661Z,8.44
2023-02-02T16:19:14.628Z,8.38
2023-02-02T16:21:51.878Z,8.29
2023-02-02T16:24:26.938Z,8.20
2023-02-02T16:27:05.163Z,8.12
2023-02-02T16:29:39.244Z,8.05
2023-02-02T16:32:09.285Z,8.00
2023-02-02T16:34:50.259Z,7.93
2023-02-02T16:37:27.341Z,7.81
2023-02-02T16:39:58.247Z,7.74
2023-02-02T16:42:30.534Z,7.70
2023-02-02T16:45:01.649Z,7.67
2023-02-02T16:47:42.105Z,7.66
2023-02-02T16:50:35.812Z,7.63
2023-02-02T16:53:08.977Z,7.55
2023-02-02T16:55:50.493Z,7.49
2023-02-02T16:58:24.401Z,7.45
2023-02-02T17:01:14.007Z,7.43
2023-02-02T17:03:53.366Z,7.39
2023-02-02T17:06:45.934Z,7.32
2023-02-02T17:09:34.725Z,7.34
2023-02-02T17:12:16.657Z,7.31
2023-02-02T17:14:54.738Z,7.31
2023-02-02T17:17:25.037Z,7.26
2023-02-02T17:19:55.189Z,7.24
2023-02-02T17:22:27.696Z,7.19
2023-02-02T17:25:01.968Z,7.19
2023-02-02T17:27:35.095Z,7.15
2023-02-02T17:30:06.892Z,7.11
2023-02-02T17:32:36.944Z,7.09
2023-02-02T17:35:16.567Z,7.05
2023-02-02T17:37:46.848Z,7.00
2023-02-02T17:40:21.812Z,6.97
2023-02-02T17:42:54.618Z,6.95
2023-02-02T17:45:27.191Z,6.95
2023-02-02T17:47:57.424Z,6.88
2023-02-02T17:50:27.863Z,6.83
2023-02-02T17:52:58.474Z,6.79
2023-02-02T17:55:34.606Z,6.76
2023-02-02T17:58:04.689Z,6.79
2023-02-02T18:00:35.332Z,6.74
2023-02-02T18:03:16.578Z,6.72
2023-02-02T18:05:47.134Z,6.67
2023-02-02T18:08:17.567Z,6.65
2023-02-02T18:10:50.509Z,6.61
2023-02-02T18:13:22.959Z,6.54
2023-02-02T18:15:56.299Z,6.53
2023-02-02T18:18:27.435Z,6.55
2023-02-02T18:20:59.113Z,6.56
2023-02-02T18:23:29.477Z,6.57
2023-02-02T18:26:11.589Z,6.56
2023-02-02T18:28:41.768Z,6.56
2023-02-02T18:31:13.527Z,6.51
2023-02-02T18:33:44.208Z,6.52
2023-02-02T18:36:19.011Z,6.50
2023-02-02T18:38:51.207Z,6.43
2023-02-02T18:41:24.324Z,6.37
2023-02-02T18:43:57.063Z,6.37
2023-02-02T18:46:27.395Z,6.35
2023-02-02T18:48:58.518Z,6.25
2023-02-02T18:51:28.993Z,6.22
2023-02-02T18:54:00.486Z,6.21
2023-02-02T18:56:33.491Z,6.17
2023-02-02T18:59:03.767Z,6.16
2023-02-02T19:01:33.910Z,6.14
2023-02-02T19:04:04.373Z,6.11
2023-02-02T19:06:46.839Z,6.11
2023-02-02T19:09:17.507Z,6.03
2023-02-02T19:11:54.942Z,6.03
2023-02-02T19:14:27.341Z,6.00
2023-02-02T19:17:02.296Z,6.01
2023-02-02T19:19:35.516Z,6.04
2023-02-02T19:22:19.745Z,6.00
2023-02-02T19:24:51.061Z,5.95
2023-02-02T19:27:26.696Z,5.92
2023-02-02T19:29:59.965Z,5.87
2023-02-02T19:32:35.124Z,5.80
2023-02-02T19:35:05.889Z,5.76
2023-02-02T19:37:43.429Z,5.69
2023-02-02T19:40:26.611Z,5.64
2023-02-02T19:43:07.842Z,5.59
2023-02-02T19:45:39.775Z,5.54
2023-02-02T19:48:17.992Z,5.53
2023-02-02T19:50:48.934Z,5.47
2023-02-02T19:53:23.301Z,5.42
2023-02-02T19:55:54.448Z,5.40
2023-02-02T19:58:29.298Z,5.42
2023-02-02T20:01:00.781Z,5.44
2023-02-02T20:03:42.941Z,5.43
2023-02-02T20:06:15.834Z,5.49
2023-02-02T20:08:46.939Z,5.54
2023-02-02T20:11:32.485Z,5.59
2023-02-02T20:14:22.882Z,5.62
2023-02-02T20:16:55.647Z,5.65
2023-02-02T20:19:29.499Z,5.58
2023-02-02T20:22:00.085Z,5.42
2023-02-02T20:24:35.174Z,5.20
2023-02-02T20:27:16.251Z,5.13
2023-02-02T20:29:51.350Z,5.10
2023-02-02T20:32:26.372Z,5.14
2023-02-02T20:34:57.862Z,5.24
2023-02-02T20:37:30.903Z,5.31
2023-02-02T20:40:03.264Z,5.37
2023-02-02T20:42:33.857Z,5.23
2023-02-02T20:45:06.870Z,5.06
2023-02-02T20:47:38.508Z,4.96
2023-02-02T20:50:10.318Z,4.85
2023-02-02T20:52:40.715Z,4.85
2023-02-02T20:55:12.229Z,4.77
2023-02-02T20:57:42.394Z,4.74
2023-02-02T21:00:21.424Z,4.71
2023-02-02T21:02:52.155Z,4.69
2023-02-02T21:05:22.168Z,4.68
2023-02-02T21:07:55.030Z,4.65
2023-02-02T21:10:26.778Z,4.68
2023-02-02T21:12:57.026Z,4.64
2023-02-02T21:15:29.804Z,4.64
2023-02-02T21:17:59.819Z,4.64
2023-02-02T21:20:29.938Z,4.63
2023-02-02T21:23:00.044Z,4.66
2023-02-02T21:25:29.956Z,4.77
2023-02-02T21:28:00.411Z,4.84
2023-02-02T21:30:33.185Z,4.98
2023-02-02T21:33:03.312Z,5.10
2023-02-02T21:35:33.309Z,5.19
2023-02-02T21:38:10.004Z,5.15
2023-02-02T21:40:40.143Z,5.18
2023-02-02T21:43:17.408Z,5.19
2023-02-02T21:45:53.385Z,5.16
2023-02-02T21:48:32.818Z,5.09
2023-02-02T21:51:19.401Z,5.11
2023-02-02T21:53:49.424Z,5.10
2023-02-02T21:56:30.084Z,5.16
2023-02-02T21:59:02.364Z,5.18
2023-02-02T22:01:39.713Z,5.28
2023-02-02T22:04:18.791Z,5.31
2023-02-02T22:06:50.509Z,5.17
2023-02-02T22:09:23.689Z,5.10
2023-02-02T22:11:58.465Z,4.99
2023-02-02T22:14:35.865Z,4.98
2023-02-02T22:17:21.433Z,4.94
2023-02-02T22:19:53.976Z,4.80
2023-02-02T22:22:26.042Z,4.75
2023-02-02T22:25:01.805Z,4.70
2023-02-02T22:27:49.833Z,4.70
2023-02-02T22:30:28.756Z,4.66
2023-02-02T22:33:01.843Z,4.59
2023-02-02T22:35:32.060Z,4.59
2023-02-02T22:38:02.530Z,4.59
2023-02-02T22:40:33.378Z,4.47
2023-02-02T22:43:08.275Z,4.46
2023-02-02T22:45:38.420Z,4.45
2023-02-02T22:48:11.584Z,4.48
2023-02-02T22:50:41.797Z,4.52
2023-02-02T22:53:12.446Z,4.46
2023-02-02T22:55:43.467Z,4.57
2023-02-02T22:58:13.539Z,4.69
2023-02-02T23:00:43.510Z,4.78
2023-02-02T23:03:16.109Z,4.88
2023-02-02T23:05:46.082Z,4.90
2023-02-02T23:08:16.134Z,4.89
2023-02-02T23:10:46.065Z,4.89
2023-02-02T23:13:16.009Z,4.92
2023-02-02T23:15:46.068Z,5.01
2023-02-02T23:18:18.899Z,5.03
2023-02-02T23:20:49.059Z,5.05
2023-02-02T23:23:19.024Z,5.03
2023-02-02T23:25:49.081Z,5.07
2023-02-02T23:28:19.171Z,5.02
2023-02-02T23:30:49.575Z,4.87
2023-02-02T23:33:22.342Z,4.79
2023-02-02T23:35:52.319Z,4.79
2023-02-02T23:38:37.298Z,4.77
2023-02-02T23:41:07.501Z,4.65
2023-02-02T23:43:42.563Z,4.57
2023-02-02T23:46:14.195Z,4.57
2023-02-02T23:48:47.341Z,4.62
2023-02-02T23:51:17.736Z,4.59
2023-02-02T23:53:48.154Z,4.51
2023-02-02T23:56:18.481Z,4.49
2023-02-02T23:58:48.705Z,4.47
